Time;durP1;ratioP1;P1;durP2;ratioP2;P2;SDS_P1;SDS_P2;PMS_P1;PMS_P2;Temp;Humidity;BMP_temperature;BMP_pressure;BME280_temperature;BME280_humidity;BME280_pressure;Samples;Min_cycle;Max_cycle;Signal;HPM_P1;HPM_P2
2022/03/06 00:00:18;;;;;;;20.23;10.70;;;0.40;84.20;;;;;;4835720;29;20073;-82
2022/03/06 00:02:43;;;;;;;;;;;0.40;83.80;;;;;;4853816;29;20030;-81
2022/03/06 00:05:09;;;;;;;21.80;11.25;;;0.60;83.50;;;;;;4852994;29;19908;-82
2022/03/06 00:07:38;;;;;;;21.92;11.18;;;0.60;83.30;;;;;;4853428;29;20030;-84
2022/03/06 00:10:04;;;;;;;;;;;0.70;82.60;;;;;;4853755;29;20374;-80
2022/03/06 00:12:30;;;;;;;22.90;11.45;;;0.70;82.30;;;;;;4853579;29;19920;-80
2022/03/06 00:14:56;;;;;;;21.65;10.70;;;0.60;82.50;;;;;;4838150;29;20026;-80
2022/03/06 00:17:26;;;;;;;20.42;10.70;;;0.60;82.70;;;;;;4902619;29;20070;-82
2022/03/06 00:19:51;;;;;;;21.75;11.35;;;0.60;82.80;;;;;;4912663;29;20023;-82
2022/03/06 00:22:18;;;;;;;21.45;11.05;;;0.50;83.00;;;;;;4912890;29;20024;-82
2022/03/06 00:24:47;;;;;;;20.88;11.20;;;0.40;83.50;;;;;;4929495;29;20036;-82
2022/03/06 00:27:23;;;;;;;22.60;11.50;;;0.30;83.60;;;;;;4928575;29;20031;-83
2022/03/06 00:29:50;;;;;;;21.25;10.73;;;0.20;84.30;;;;;;4932431;29;20083;-81
2022/03/06 00:32:44;;;;;;;20.67;10.85;;;0.10;84.90;;;;;;4933137;29;20036;-80
2022/03/06 00:35:16;;;;;;;19.95;10.80;;;0.00;85.20;;;;;;4930365;29;20032;-79
2022/03/06 00:37:54;;;;;;;20.95;10.50;;;-0.10;85.90;;;;;;4930035;29;20044;-84
2022/03/06 00:41:07;;;;;;;20.65;11.32;;;-0.20;86.20;;;;;;4897951;29;20223;-79
2022/03/06 00:43:36;;;;;;;23.15;10.93;;;-0.30;86.80;;;;;;4897677;29;20319;-82
2022/03/06 00:46:27;;;;;;;19.95;10.45;;;-0.50;87.40;;;;;;4896557;29;20326;-82
2022/03/06 00:48:53;;;;;;;20.55;11.10;;;-0.60;87.80;;;;;;4912537;29;20058;-84
2022/03/06 00:51:19;;;;;;;18.42;9.63;;;-0.70;88.80;;;;;;4912936;29;20243;-83
2022/03/06 00:53:45;;;;;;;24.70;10.50;;;-0.70;89.00;;;;;;4913063;29;20214;-82
2022/03/06 00:56:14;;;;;;;20.02;10.45;;;-0.80;89.40;;;;;;4899179;29;20346;-81
2022/03/06 00:58:42;;;;;;;21.98;10.52;;;-0.80;88.90;;;;;;4913931;29;20048;-80
2022/03/06 01:01:10;;;;;;;21.52;10.30;;;-0.80;89.20;;;;;;4904571;29;20048;-81
2022/03/06 01:03:41;;;;;;;21.60;10.60;;;-0.70;88.60;;;;;;4929346;29;20205;-80
2022/03/06 01:06:07;;;;;;;19.23;10.15;;;-0.80;88.70;;;;;;4929263;29;20063;-81
2022/03/06 01:08:33;;;;;;;19.45;10.20;;;-0.80;88.20;;;;;;4930614;29;20043;-80
2022/03/06 01:10:59;;;;;;;22.75;10.82;;;-0.90;88.20;;;;;;4929740;29;20035;-81
2022/03/06 01:13:37;;;;;;;20.02;10.35;;;-0.90;88.60;;;;;;4930075;29;20074;-82
2022/03/06 01:16:03;;;;;;;23.13;11.70;;;-1.00;88.50;;;;;;4913407;29;20028;-81
2022/03/06 01:18:28;;;;;;;20.77;10.27;;;-1.20;88.80;;;;;;4913985;29;20044;-80
2022/03/06 01:21:15;;;;;;;24.85;10.45;;;-1.30;89.70;;;;;;4929739;29;20040;-81
2022/03/06 01:23:46;;;;;;;20.10;10.18;;;-1.20;89.70;;;;;;4914149;29;20204;-80
2022/03/06 01:26:12;;;;;;;23.00;10.55;;;-1.10;89.30;;;;;;4914319;29;20039;-83
2022/03/06 01:28:38;;;;;;;18.80;10.63;;;-1.10;88.70;;;;;;4929752;29;20019;-82
2022/03/06 01:31:18;;;;;;;23.67;10.93;;;-1.10;88.60;;;;;;4913241;29;20060;-80
2022/03/06 01:33:43;;;;;;;21.88;10.90;;;-1.10;88.40;;;;;;4913555;29;20051;-79
2022/03/06 01:36:15;;;;;;;17.08;10.02;;;-1.10;88.70;;;;;;4913514;29;20065;-83
2022/03/06 01:38:41;;;;;;;22.05;10.93;;;-1.00;88.10;;;;;;4913489;29;20043;-80
2022/03/06 01:41:09;;;;;;;24.88;11.18;;;-1.00;88.80;;;;;;4929829;29;20202;-81
2022/03/06 01:43:35;;;;;;;21.30;10.48;;;-1.00;88.10;;;;;;4912399;29;20039;-82
2022/03/06 01:46:01;;;;;;;22.23;10.88;;;-1.00;88.10;;;;;;4910882;29;20202;-81
2022/03/06 01:48:29;;;;;;;19.55;10.32;;;-1.00;88.30;;;;;;4926373;29;20016;-80
2022/03/06 01:50:55;;;;;;;;;;;-1.00;88.40;;;;;;4927252;29;20104;-81
2022/03/06 01:53:20;;;;;;;20.08;10.02;;;-1.10;88.60;;;;;;4926128;29;19907;-82
2022/03/06 01:55:49;;;;;;;22.50;10.35;;;-1.20;88.90;;;;;;4927197;29;20030;-83
2022/03/06 01:58:15;;;;;;;19.13;10.00;;;-1.30;89.60;;;;;;4909970;29;20088;-82
2022/03/06 02:00:49;;;;;;;20.50;10.18;;;-1.20;89.10;;;;;;4920097;29;20012;-81
2022/03/06 02:03:18;;;;;;;21.38;10.70;;;-1.30;89.10;;;;;;4909849;29;20218;-82
2022/03/06 02:05:50;;;;;;;23.13;10.60;;;-1.50;90.10;;;;;;4924815;29;20032;-81
2022/03/06 02:08:16;;;;;;;20.65;10.73;;;-1.40;90.10;;;;;;4926852;29;20024;-81
2022/03/06 02:10:44;;;;;;;23.40;11.57;;;-1.40;90.30;;;;;;4926106;29;20079;-80
2022/03/06 02:13:10;;;;;;;20.58;11.18;;;-1.40;90.30;;;;;;4925588;29;20072;-80
2022/03/06 02:15:36;;;;;;;24.13;11.43;;;-1.30;90.20;;;;;;4926077;29;20130;-79
2022/03/06 02:18:08;;;;;;;21.20;10.63;;;-1.20;89.80;;;;;;4909735;29;20028;-81
2022/03/06 02:20:36;;;;;;;21.42;10.70;;;-1.20;89.80;;;;;;4925990;29;20183;-78
2022/03/06 02:23:07;;;;;;;22.65;10.52;;;-1.10;89.50;;;;;;4925345;29;20091;-80
2022/03/06 02:25:35;;;;;;;21.00;10.68;;;-1.20;89.40;;;;;;4925948;29;20059;-81
2022/03/06 02:28:09;;;;;;;14.95;7.63;;;-1.20;89.50;;;;;;4925398;29;20038;-80
2022/03/06 02:30:40;;;;;;;19.27;9.95;;;-1.30;89.90;;;;;;4926684;29;20036;-80
2022/03/06 02:33:12;;;;;;;22.67;10.57;;;-1.40;90.10;;;;;;4926862;29;20048;-81
2022/03/06 02:35:59;;;;;;;22.00;11.23;;;-1.40;90.20;;;;;;4927862;29;20024;-80
2022/03/06 02:38:24;;;;;;;21.30;10.57;;;-1.40;90.20;;;;;;4910045;29;20319;-80
2022/03/06 02:40:55;;;;;;;17.70;10.02;;;-1.50;90.00;;;;;;4926164;29;20030;-79
2022/03/06 02:43:24;;;;;;;21.70;10.48;;;-1.50;90.10;;;;;;4926423;29;20028;-79
2022/03/06 02:45:50;;;;;;;20.45;10.63;;;-1.60;90.60;;;;;;4925028;29;20183;-80
2022/03/06 02:48:17;;;;;;;21.92;10.80;;;-1.80;91.20;;;;;;4909606;29;20067;-80
2022/03/06 02:51:01;;;;;;;21.00;10.52;;;-1.80;91.50;;;;;;4909477;29;20290;-80
2022/03/06 02:53:27;;;;;;;22.00;10.43;;;-1.90;91.70;;;;;;4925168;29;20042;-79
2022/03/06 02:55:58;;;;;;;20.48;10.13;;;-1.90;91.70;;;;;;4925639;29;20051;-80
2022/03/06 02:58:24;;;;;;;20.67;10.35;;;-1.90;91.80;;;;;;4910170;29;20040;-81
2022/03/06 03:00:59;;;;;;;24.60;11.90;;;-1.80;92.00;;;;;;4906746;29;20119;-79
2022/03/06 03:03:45;;;;;;;23.67;11.75;;;-1.70;91.60;;;;;;4907373;29;20082;-79
2022/03/06 03:06:13;;;;;;;22.02;10.88;;;-1.50;91.10;;;;;;4891977;29;20056;-77
2022/03/06 03:08:41;;;;;;;22.40;11.30;;;-1.50;91.00;;;;;;4918486;29;20040;-78
2022/03/06 03:11:07;;;;;;;23.05;10.90;;;-1.50;91.20;;;;;;4897872;29;20040;-78
2022/03/06 03:13:39;;;;;;;22.13;10.63;;;-1.40;90.80;;;;;;4916270;29;20108;-78
2022/03/06 03:16:06;;;;;;;20.88;11.05;;;-1.40;90.70;;;;;;4906124;29;20069;-79
2022/03/06 03:18:34;;;;;;;22.10;10.55;;;-1.40;90.70;;;;;;4907482;29;20095;-78
2022/03/06 03:21:00;;;;;;;20.65;10.48;;;-1.50;90.90;;;;;;4905575;29;20095;-79
2022/03/06 03:23:27;;;;;;;21.33;10.55;;;-1.60;91.00;;;;;;4905667;29;20322;-79
2022/03/06 03:25:53;;;;;;;20.75;9.45;;;-1.80;91.50;;;;;;4906817;29;20035;-79
2022/03/06 03:28:19;;;;;;;20.85;10.45;;;-1.90;91.70;;;;;;4890284;29;20055;-79
2022/03/06 03:30:45;;;;;;;20.95;10.35;;;-1.90;92.00;;;;;;4890313;29;20095;-79
2022/03/06 03:33:10;;;;;;;22.20;10.25;;;-1.90;91.80;;;;;;4906314;29;20032;-78
2022/03/06 03:35:36;;;;;;;21.05;10.55;;;-2.00;92.10;;;;;;4906716;29;20314;-79
2022/03/06 03:38:02;;;;;;;22.00;9.40;;;-2.00;92.40;;;;;;4904760;29;20175;-79
2022/03/06 03:40:28;;;;;;;21.48;10.40;;;-2.00;92.30;;;;;;4905525;29;20093;-79
2022/03/06 03:42:57;;;;;;;18.67;10.05;;;-1.90;92.10;;;;;;4906053;29;20104;-79
2022/03/06 03:45:25;;;;;;;23.90;10.23;;;-2.10;92.40;;;;;;4906380;29;20108;-80
2022/03/06 03:47:51;;;;;;;21.40;11.27;;;-2.10;92.40;;;;;;4906504;29;20208;-79
2022/03/06 03:53:50;;;;;;;22.48;10.18;;;-2.20;92.90;;;;;;4906506;29;20033;-81
2022/03/06 03:56:16;;;;;;;19.60;10.63;;;-2.20;93.20;;;;;;4904920;29;20032;-78
2022/03/06 03:58:42;;;;;;;26.33;11.27;;;-2.30;93.30;;;;;;4906424;29;20039;-78
2022/03/06 04:01:08;;;;;;;22.85;10.52;;;-2.20;93.60;;;;;;4903948;29;20032;-79
2022/03/06 04:03:34;;;;;;;19.90;10.27;;;-2.10;93.30;;;;;;4908159;29;20298;-80
2022/03/06 04:06:18;;;;;;;22.67;10.32;;;-2.20;93.00;;;;;;4924839;29;20047;-79
2022/03/06 04:08:44;;;;;;;21.05;10.98;;;-2.20;93.00;;;;;;4909064;29;20311;-80
2022/03/06 04:11:11;;;;;;;21.25;9.95;;;-2.10;92.60;;;;;;4927413;29;20036;-78
2022/03/06 04:13:58;;;;;;;22.60;10.60;;;-2.10;92.40;;;;;;4925342;29;20052;-78
2022/03/06 04:16:24;;;;;;;22.08;10.85;;;-2.20;92.70;;;;;;4925234;29;20070;-78
2022/03/06 04:19:16;;;;;;;20.02;10.40;;;-2.20;92.80;;;;;;4925094;29;20028;-80
2022/03/06 04:21:42;;;;;;;23.08;10.68;;;-2.20;92.90;;;;;;4905788;29;20334;-77
2022/03/06 04:24:08;;;;;;;23.30;10.30;;;-2.30;93.20;;;;;;4898591;29;20060;-78
2022/03/06 04:29:49;;;;;;;19.80;8.98;;;-2.40;93.10;;;;;;4878037;29;20056;-79
2022/03/06 04:32:15;;;;;;;23.83;10.60;;;-2.40;93.40;;;;;;4877043;29;20286;-78
2022/03/06 04:34:50;;;;;;;23.02;10.50;;;-2.40;93.30;;;;;;4845272;29;20321;-78
2022/03/06 04:37:16;;;;;;;20.30;10.77;;;-2.30;93.30;;;;;;4855553;29;20310;-81
2022/03/06 04:39:41;;;;;;;20.63;10.10;;;-2.30;93.00;;;;;;4870583;29;20049;-78
2022/03/06 04:42:07;;;;;;;20.27;9.45;;;-2.30;93.30;;;;;;4854118;29;20100;-79
2022/03/06 04:44:34;;;;;;;23.50;11.27;;;-2.20;93.00;;;;;;4855054;29;20286;-79
2022/03/06 04:47:00;;;;;;;21.85;10.00;;;-2.20;93.00;;;;;;4869589;29;20045;-78
2022/03/06 04:49:25;;;;;;;22.20;11.10;;;-2.20;92.90;;;;;;4854648;29;20295;-79
2022/03/06 04:51:51;;;;;;;22.73;10.95;;;-2.20;93.20;;;;;;4854577;29;20232;-79
2022/03/06 04:54:35;;;;;;;24.77;11.80;;;-2.30;93.80;;;;;;4838506;29;20079;-77
2022/03/06 04:57:02;;;;;;;26.17;11.70;;;-2.40;94.40;;;;;;4854025;29;20037;-81
2022/03/06 04:59:28;;;;;;;22.92;10.55;;;-2.60;94.50;;;;;;4869753;29;20399;-81
2022/03/06 05:01:59;;;;;;;22.27;12.13;;;-2.50;94.80;;;;;;4869786;29;20371;-79
2022/03/06 05:04:25;;;;;;;26.38;11.93;;;-2.50;94.60;;;;;;4869957;29;20061;-78
2022/03/06 05:07:16;;;;;;;24.10;11.57;;;-2.50;94.70;;;;;;4894202;29;20036;-77
2022/03/06 05:09:42;;;;;;;22.42;10.65;;;-2.60;95.30;;;;;;4910901;29;20039;-78
2022/03/06 05:12:10;;;;;;;24.17;11.10;;;-2.60;95.30;;;;;;4926522;29;20052;-78
2022/03/06 05:14:36;;;;;;;24.38;11.98;;;-2.60;95.40;;;;;;4911117;29;20035;-81
2022/03/06 05:17:02;;;;;;;27.13;11.60;;;-2.70;95.60;;;;;;4910610;29;20036;-76
2022/03/06 05:19:30;;;;;;;22.90;10.57;;;-2.60;95.90;;;;;;4928109;29;20040;-78
2022/03/06 05:21:57;;;;;;;24.20;11.18;;;-2.70;95.80;;;;;;4926993;29;20211;-79
2022/03/06 05:24:28;;;;;;;24.30;11.45;;;-2.70;95.80;;;;;;4910395;29;20142;-81
2022/03/06 05:26:54;;;;;;;24.55;11.63;;;-2.70;95.70;;;;;;4910960;29;20036;-80
2022/03/06 05:29:19;;;;;;;27.08;11.25;;;-2.70;95.80;;;;;;4927390;29;20087;-80
2022/03/06 05:31:45;;;;;;;21.77;11.07;;;-2.60;95.40;;;;;;4926382;29;20052;-79
2022/03/06 05:34:11;;;;;;;18.98;10.00;;;-2.50;94.60;;;;;;4927268;29;20112;-78
2022/03/06 05:36:37;;;;;;;22.08;10.50;;;-2.40;94.40;;;;;;4910702;29;20318;-80
2022/03/06 05:39:03;;;;;;;23.15;10.85;;;-2.20;94.10;;;;;;4909131;29;20043;-80
2022/03/06 05:41:29;;;;;;;23.23;11.10;;;-2.10;93.90;;;;;;4910929;29;20040;-80
2022/03/06 05:43:57;;;;;;;21.65;10.95;;;-1.70;92.90;;;;;;4928809;29;20032;-79
2022/03/06 05:46:23;;;;;;;21.77;9.55;;;-1.50;92.20;;;;;;4910504;29;20042;-79
2022/03/06 05:48:49;;;;;;;22.80;10.82;;;-1.30;91.70;;;;;;4927969;29;20020;-79
2022/03/06 05:51:18;;;;;;;22.00;10.85;;;-1.30;91.90;;;;;;4910758;29;20218;-79
2022/03/06 05:53:44;;;;;;;21.52;10.52;;;-1.30;92.40;;;;;;4927920;29;20028;-81
2022/03/06 06:00:00;;;;;;;22.38;10.32;;;-1.20;91.70;;;;;;4927939;29;20223;-82
2022/03/06 06:02:25;;;;;;;18.48;9.98;;;-1.20;91.40;;;;;;4904520;29;20111;-79
2022/03/06 06:04:54;;;;;;;21.58;10.48;;;-1.20;91.10;;;;;;4919635;29;20080;-78
2022/03/06 06:07:20;;;;;;;22.60;11.23;;;-1.20;91.50;;;;;;4909901;29;20048;-79
2022/03/06 06:09:46;;;;;;;22.80;10.60;;;-1.20;91.80;;;;;;4891538;29;20021;-82
2022/03/06 06:12:11;;;;;;;19.77;10.35;;;-1.30;92.50;;;;;;4892681;29;20160;-79
2022/03/06 06:15:05;;;;;;;19.10;9.77;;;-1.20;91.60;;;;;;4893382;29;20084;-81
2022/03/06 06:17:31;;;;;;;20.02;10.45;;;-1.10;91.20;;;;;;4891825;29;20059;-79
2022/03/06 06:19:57;;;;;;;20.77;10.68;;;-1.30;92.00;;;;;;4924115;29;20075;-80
2022/03/06 06:22:22;;;;;;;20.77;11.38;;;-1.40;92.10;;;;;;4929151;29;20070;-77
2022/03/06 06:24:49;;;;;;;23.27;11.38;;;-1.40;92.20;;;;;;4898323;29;20034;-80
2022/03/06 06:27:15;;;;;;;20.77;10.70;;;-1.30;92.10;;;;;;4920475;29;20020;-80
2022/03/06 06:29:40;;;;;;;21.25;11.32;;;-1.30;92.20;;;;;;4939397;29;20052;-78
2022/03/06 06:32:07;;;;;;;21.50;10.38;;;-1.30;92.20;;;;;;4936616;29;20048;-81
2022/03/06 06:34:33;;;;;;;19.30;10.57;;;-1.30;91.80;;;;;;4928050;29;20024;-81
2022/03/06 06:37:04;;;;;;;22.00;11.15;;;-1.20;91.70;;;;;;4911405;29;20090;-80
2022/03/06 06:39:30;;;;;;;21.30;10.88;;;-1.10;91.80;;;;;;4909054;29;20233;-80
2022/03/06 06:41:57;;;;;;;21.60;11.45;;;-1.10;91.80;;;;;;4891798;29;20040;-80
2022/03/06 06:44:23;;;;;;;22.75;11.13;;;-1.10;91.60;;;;;;4907851;29;20200;-78
2022/03/06 06:46:48;;;;;;;20.17;11.10;;;-1.00;91.30;;;;;;4891172;29;20043;-78
2022/03/06 06:49:14;;;;;;;19.33;10.90;;;-1.00;91.80;;;;;;4907827;29;20024;-78
2022/03/06 06:51:40;;;;;;;25.73;11.82;;;-1.00;92.00;;;;;;4887697;29;20033;-80
2022/03/06 06:54:09;;;;;;;23.88;12.13;;;-1.00;92.30;;;;;;4894160;29;20033;-81
2022/03/06 06:56:34;;;;;;;20.50;11.27;;;-0.90;92.20;;;;;;4887622;29;20040;-78
2022/03/06 07:02:47;;;;;;;21.70;11.30;;;-0.60;91.50;;;;;;4887420;29;20149;-80
2022/03/06 07:05:13;;;;;;;19.67;10.57;;;-0.50;91.60;;;;;;4905397;29;20032;-79
2022/03/06 07:07:39;;;;;;;19.50;10.63;;;-0.50;91.50;;;;;;4890432;29;20036;-79
2022/03/06 07:10:08;;;;;;;23.00;11.27;;;-0.40;91.20;;;;;;4890731;29;20052;-79
2022/03/06 07:12:48;;;;;;;22.17;12.00;;;-0.20;91.10;;;;;;4905915;29;20045;-80
2022/03/06 07:15:15;;;;;;;19.35;10.63;;;-0.10;91.10;;;;;;4903682;29;20040;-80
2022/03/06 07:17:41;;;;;;;21.85;11.40;;;0.00;90.90;;;;;;4890184;29;20413;-78
2022/03/06 07:20:09;;;;;;;20.17;10.95;;;0.00;90.90;;;;;;4889654;29;20051;-78
2022/03/06 07:22:38;;;;;;;19.02;10.50;;;0.20;90.70;;;;;;4884089;29;20035;-79
2022/03/06 07:25:04;;;;;;;19.98;11.07;;;0.40;90.00;;;;;;4906444;29;20036;-78
2022/03/06 07:27:30;;;;;;;21.48;11.57;;;0.60;89.60;;;;;;4905131;29;20060;-79
2022/03/06 07:29:57;;;;;;;20.40;10.82;;;0.60;89.60;;;;;;4905649;29;20295;-78
2022/03/06 07:32:23;;;;;;;18.80;11.10;;;0.70;89.50;;;;;;4904287;29;20041;-79
2022/03/06 07:34:49;;;;;;;21.58;11.82;;;0.80;88.70;;;;;;4905800;29;20055;-78
2022/03/06 07:37:15;;;;;;;20.00;11.35;;;1.00;88.70;;;;;;4889404;29;20032;-79
2022/03/06 07:39:41;;;;;;;19.77;11.23;;;1.10;88.10;;;;;;4906090;29;20130;-80
2022/03/06 07:42:07;;;;;;;20.10;10.88;;;1.20;88.10;;;;;;4905854;29;20033;-80
2022/03/06 07:44:39;;;;;;;20.10;12.13;;;1.30;87.50;;;;;;4890161;29;20149;-79
2022/03/06 07:47:06;;;;;;;22.23;12.00;;;1.40;87.40;;;;;;4905573;29;20048;-79
2022/03/06 07:49:31;;;;;;;20.40;11.35;;;1.50;87.60;;;;;;4867933;29;20053;-78
2022/03/06 07:52:01;;;;;;;20.02;11.32;;;1.70;86.90;;;;;;4852899;29;20045;-78
2022/03/06 07:54:30;;;;;;;;;;;1.70;86.50;;;;;;4853019;29;20448;-80
2022/03/06 07:56:58;;;;;;;18.42;10.35;;;1.80;86.10;;;;;;4871281;29;19915;-80
2022/03/06 07:59:28;;;;;;;20.60;11.30;;;1.80;86.10;;;;;;4886408;29;20343;-78
2022/03/06 08:01:54;;;;;;;21.20;11.70;;;1.90;85.50;;;;;;4870062;29;20056;-79
2022/03/06 08:04:23;;;;;;;20.30;11.43;;;2.00;85.30;;;;;;4882684;29;20020;-78
2022/03/06 08:06:49;;;;;;;21.92;11.77;;;2.10;85.70;;;;;;4859296;29;20358;-78
2022/03/06 08:09:15;;;;;;;20.90;12.15;;;2.30;85.20;;;;;;4874736;29;20048;-79
2022/03/06 08:11:42;;;;;;;21.00;11.48;;;2.40;85.10;;;;;;4890651;29;20044;-80
2022/03/06 08:14:11;;;;;;;20.55;11.27;;;2.60;84.40;;;;;;4859733;29;20116;-80
2022/03/06 08:16:37;;;;;;;20.92;10.55;;;2.70;84.00;;;;;;4872238;29;20361;-80
2022/03/06 08:19:06;;;;;;;19.92;11.00;;;2.90;83.30;;;;;;4890074;29;20075;-79
2022/03/06 08:21:32;;;;;;;19.80;11.63;;;3.00;82.00;;;;;;4889939;29;20112;-79
2022/03/06 08:23:58;;;;;;;19.42;11.02;;;3.10;82.40;;;;;;4890323;29;20029;-79
2022/03/06 08:26:24;;;;;;;20.20;11.15;;;3.20;82.10;;;;;;4896640;29;20048;-80
2022/03/06 08:28:51;;;;;;;20.95;11.98;;;3.30;81.70;;;;;;4894846;29;20059;-78
2022/03/06 08:31:17;;;;;;;20.00;11.40;;;3.20;81.20;;;;;;4911205;29;20052;-78
2022/03/06 08:33:43;;;;;;;19.20;11.18;;;3.40;81.20;;;;;;4911023;29;20035;-78
2022/03/06 08:36:09;;;;;;;20.13;10.82;;;3.40;80.90;;;;;;4917386;29;20024;-77
2022/03/06 08:38:34;;;;;;;20.67;11.35;;;3.50;80.50;;;;;;4912179;29;20365;-80
2022/03/06 08:41:25;;;;;;;20.35;11.00;;;3.60;79.80;;;;;;4896821;29;20016;-80
2022/03/06 08:43:52;;;;;;;20.58;10.35;;;3.60;79.20;;;;;;4912798;29;20077;-77
2022/03/06 08:46:24;;;;;;;19.02;10.15;;;3.80;79.10;;;;;;4911183;29;20040;-81
2022/03/06 08:48:53;;;;;;;19.58;10.75;;;3.80;78.60;;;;;;4893753;29;20216;-79
2022/03/06 08:51:19;;;;;;;20.00;11.07;;;3.90;78.70;;;;;;4901986;29;20020;-79
2022/03/06 08:53:45;;;;;;;20.63;10.77;;;4.00;78.70;;;;;;4911977;29;20039;-80
2022/03/06 08:56:11;;;;;;;21.42;10.73;;;4.10;78.20;;;;;;4928966;29;20087;-79
2022/03/06 08:58:37;;;;;;;19.05;10.95;;;4.20;77.50;;;;;;4911611;29;20028;-79
2022/03/06 09:01:02;;;;;;;20.58;11.05;;;4.10;77.50;;;;;;4927179;29;20040;-78
2022/03/06 09:03:28;;;;;;;18.45;10.57;;;4.20;77.10;;;;;;4928074;29;20028;-80
2022/03/06 09:05:54;;;;;;;20.52;10.98;;;4.30;77.00;;;;;;4912116;29;20103;-80
2022/03/06 09:08:20;;;;;;;22.38;11.02;;;4.30;76.90;;;;;;4903053;29;20025;-78
2022/03/06 09:10:48;;;;;;;19.38;10.70;;;4.30;76.30;;;;;;4894455;29;20215;-78
2022/03/06 09:13:17;;;;;;;17.88;10.68;;;4.30;76.50;;;;;;4893476;29;20052;-79
2022/03/06 09:15:42;;;;;;;;;;;4.10;76.20;;;;;;4908526;29;20047;-81
2022/03/06 09:18:08;;;;;;;18.20;10.55;;;4.30;76.30;;;;;;4909550;29;20086;-79
2022/03/06 09:20:34;;;;;;;21.55;11.48;;;4.40;76.20;;;;;;4909159;29;20020;-79
2022/03/06 09:23:00;;;;;;;18.17;10.30;;;4.40;75.50;;;;;;4909614;29;20098;-78
2022/03/06 09:25:32;;;;;;;19.42;11.15;;;4.50;75.80;;;;;;4909263;29;20060;-79
2022/03/06 09:28:02;;;;;;;20.60;10.73;;;4.40;75.40;;;;;;4910017;29;20080;-78
2022/03/06 09:30:29;;;;;;;19.73;10.27;;;4.40;75.00;;;;;;4892399;29;20040;-78
2022/03/06 09:32:55;;;;;;;19.52;10.45;;;4.50;74.90;;;;;;4892396;29;20212;-78
2022/03/06 09:35:21;;;;;;;22.00;10.68;;;4.60;75.00;;;;;;4909369;29;20095;-78
2022/03/06 09:37:47;;;;;;;19.83;10.75;;;4.60;74.50;;;;;;4928143;29;20044;-79
2022/03/06 09:40:16;;;;;;;20.35;10.50;;;4.70;74.70;;;;;;4926952;29;20060;-78
2022/03/06 09:42:42;;;;;;;19.92;10.18;;;4.90;74.60;;;;;;4895578;29;20039;-78
2022/03/06 09:45:10;;;;;;;18.83;9.75;;;5.10;72.90;;;;;;4927545;29;20035;-79
2022/03/06 09:47:37;;;;;;;;;;;5.10;72.10;;;;;;4911604;29;20084;-78
2022/03/06 09:50:04;;;;;;;17.42;10.00;;;5.10;72.10;;;;;;4928454;29;19907;-78
2022/03/06 09:52:30;;;;;;;17.58;9.27;;;5.20;71.90;;;;;;4927391;29;20330;-78
2022/03/06 09:54:56;;;;;;;18.83;9.90;;;5.40;71.40;;;;;;4927987;29;20036;-80
2022/03/06 09:57:22;;;;;;;20.33;10.25;;;5.60;70.60;;;;;;4921096;29;20311;-79
2022/03/06 09:59:48;;;;;;;20.92;10.00;;;5.90;69.00;;;;;;4907687;29;20032;-76
2022/03/06 10:02:14;;;;;;;19.40;9.98;;;5.90;69.20;;;;;;4907029;29;20091;-80
2022/03/06 10:05:23;;;;;;;17.85;9.70;;;6.10;68.20;;;;;;4906802;29;20188;-79
2022/03/06 10:08:26;;;;;;;18.05;9.93;;;6.10;68.20;;;;;;4875166;29;20068;-79
2022/03/06 10:11:04;;;;;;;18.25;9.45;;;6.50;67.80;;;;;;4872665;29;20084;-78
2022/03/06 10:13:37;;;;;;;16.60;9.95;;;6.70;66.60;;;;;;4872135;29;20036;-80
2022/03/06 10:16:07;;;;;;;16.38;10.00;;;6.90;65.40;;;;;;4871833;29;20236;-79
2022/03/06 10:18:38;;;;;;;20.02;10.55;;;6.90;64.70;;;;;;4887707;29;20059;-79
2022/03/06 10:21:22;;;;;;;16.98;9.35;;;6.70;64.30;;;;;;4888251;29;20224;-78
2022/03/06 10:23:53;;;;;;;17.52;9.27;;;6.80;64.40;;;;;;4885115;29;20041;-77
2022/03/06 10:26:22;;;;;;;14.82;8.75;;;6.80;63.70;;;;;;4886926;29;20040;-79
2022/03/06 10:28:59;;;;;;;16.23;8.93;;;6.80;63.50;;;;;;4872394;29;20028;-80
2022/03/06 10:31:27;;;;;;;20.13;10.55;;;7.10;63.30;;;;;;4886841;29;20133;-78
2022/03/06 10:34:04;;;;;;;18.35;10.20;;;7.00;63.90;;;;;;4888154;29;20056;-79
2022/03/06 10:36:31;;;;;;;19.95;10.38;;;7.20;63.40;;;;;;4890073;29;20076;-78
2022/03/06 10:38:57;;;;;;;15.93;9.43;;;7.00;62.70;;;;;;4887728;29;20499;-78
2022/03/06 10:41:38;;;;;;;16.40;9.50;;;7.20;63.00;;;;;;4872680;29;20112;-79
2022/03/06 10:44:08;;;;;;;17.30;9.73;;;7.70;62.30;;;;;;4888747;29;20092;-79
2022/03/06 10:46:34;;;;;;;17.15;9.70;;;8.30;60.80;;;;;;4908881;29;20123;-78
2022/03/06 10:49:16;;;;;;;15.35;8.77;;;8.60;59.50;;;;;;4926990;29;20028;-78
2022/03/06 10:51:47;;;;;;;15.48;9.05;;;8.70;59.50;;;;;;4926404;29;20043;-78
2022/03/06 10:54:14;;;;;;;15.88;9.13;;;8.80;59.50;;;;;;4926986;29;20035;-77
2022/03/06 10:56:47;;;;;;;16.63;8.97;;;9.00;58.90;;;;;;4926820;29;20043;-77
2022/03/06 10:59:17;;;;;;;14.18;8.30;;;8.70;58.50;;;;;;4895318;29;20450;-78
2022/03/06 11:01:45;;;;;;;13.90;8.48;;;8.60;58.40;;;;;;4924281;29;20044;-77
2022/03/06 11:04:13;;;;;;;15.38;8.43;;;8.50;58.10;;;;;;4917108;29;20071;-77
2022/03/06 11:06:40;;;;;;;13.63;8.73;;;8.50;57.80;;;;;;4913559;29;20040;-77
2022/03/06 11:09:12;;;;;;;15.23;8.85;;;7.90;57.90;;;;;;4909957;29;20032;-77
2022/03/06 11:11:44;;;;;;;14.50;8.60;;;7.90;58.70;;;;;;4914255;29;20033;-78
2022/03/06 11:14:11;;;;;;;16.15;9.27;;;7.80;59.10;;;;;;4907944;29;20025;-76
2022/03/06 11:16:38;;;;;;;14.02;8.95;;;7.80;58.80;;;;;;4889746;29;20051;-77
2022/03/06 11:19:05;;;;;;;15.20;8.95;;;7.90;59.30;;;;;;4910984;29;20023;-77
2022/03/06 11:21:35;;;;;;;15.82;8.73;;;8.20;58.10;;;;;;4926280;29;20075;-78
2022/03/06 11:24:17;;;;;;;13.05;8.30;;;9.40;56.90;;;;;;4909653;29;20040;-80
2022/03/06 11:26:49;;;;;;;14.32;9.02;;;11.00;54.50;;;;;;4909132;29;20310;-78
2022/03/06 11:29:24;;;;;;;15.73;9.57;;;11.80;52.20;;;;;;4893650;29;20416;-78
2022/03/06 11:31:52;;;;;;;11.68;8.15;;;12.90;50.90;;;;;;4925613;29;20384;-78
2022/03/06 11:34:27;;;;;;;13.20;8.88;;;14.20;49.60;;;;;;4899754;29;20021;-80
2022/03/06 11:36:55;;;;;;;13.70;9.35;;;15.40;47.90;;;;;;4913067;29;20032;-79
2022/03/06 11:39:30;;;;;;;12.27;9.07;;;15.40;46.90;;;;;;4891203;29;20031;-78
2022/03/06 11:42:07;;;;;;;13.32;9.27;;;14.60;47.00;;;;;;4912801;29;20020;-80
2022/03/06 11:44:41;;;;;;;12.80;8.38;;;13.90;48.20;;;;;;4908964;29;20036;-79
2022/03/06 11:47:38;;;;;;;11.27;8.32;;;15.40;47.30;;;;;;4925426;29;20107;-78
2022/03/06 11:50:05;;;;;;;12.47;8.57;;;17.30;45.40;;;;;;4908820;29;20032;-78
2022/03/06 11:52:34;;;;;;;12.00;8.88;;;17.40;44.40;;;;;;4906766;29;20095;-80
2022/03/06 11:55:00;;;;;;;11.82;8.93;;;16.70;44.20;;;;;;4907174;29;20032;-78
2022/03/06 11:57:43;;;;;;;11.55;8.15;;;16.90;44.40;;;;;;4906238;29;20096;-79
2022/03/06 12:00:33;;;;;;;12.45;8.40;;;17.40;43.00;;;;;;4906287;29;20277;-81
2022/03/06 12:03:01;;;;;;;10.27;7.82;;;16.30;44.20;;;;;;4910387;29;20025;-81
2022/03/06 12:05:54;;;;;;;11.13;8.35;;;17.70;44.00;;;;;;4890055;29;20040;-79
2022/03/06 12:08:26;;;;;;;9.95;7.90;;;20.10;42.50;;;;;;4906694;29;20299;-81
2022/03/06 12:11:17;;;;;;;9.68;7.88;;;21.80;40.50;;;;;;4913545;29;20432;-80
2022/03/06 12:13:49;;;;;;;8.98;7.50;;;22.20;39.10;;;;;;4907930;29;20546;-81
2022/03/06 12:16:17;;;;;;;9.30;7.65;;;20.70;39.50;;;;;;4923633;29;20230;-78
2022/03/06 12:19:02;;;;;;;9.85;7.65;;;19.70;40.50;;;;;;4924983;29;20040;-78
2022/03/06 12:21:37;;;;;;;10.70;8.07;;;17.80;42.40;;;;;;4909631;29;20046;-78
2022/03/06 12:24:27;;;;;;;11.90;8.02;;;16.10;43.70;;;;;;4897026;29;20057;-78
2022/03/06 12:26:54;;;;;;;11.60;8.27;;;13.20;46.00;;;;;;4921847;29;20027;-80
2022/03/06 12:29:45;;;;;;;10.40;7.90;;;13.00;48.00;;;;;;4889652;29;20048;-78
2022/03/06 12:32:31;;;;;;;11.40;8.27;;;12.60;48.20;;;;;;4891867;29;20299;-79
2022/03/06 12:35:07;;;;;;;11.95;8.15;;;12.50;48.80;;;;;;4903894;29;20085;-77
2022/03/06 12:37:37;;;;;;;11.30;8.02;;;11.70;49.20;;;;;;4923984;29;20042;-77
2022/03/06 12:40:15;;;;;;;11.50;8.50;;;11.00;50.50;;;;;;4908199;29;20055;-79
2022/03/06 12:42:43;;;;;;;11.43;7.97;;;10.10;51.50;;;;;;4904782;29;20028;-78
2022/03/06 12:45:17;;;;;;;12.13;8.02;;;9.90;52.50;;;;;;4905679;29;20028;-80
2022/03/06 12:47:44;;;;;;;11.93;8.20;;;9.50;53.10;;;;;;4905913;29;20033;-79
2022/03/06 12:50:15;;;;;;;11.70;7.80;;;11.70;51.20;;;;;;4892619;29;20174;-82
2022/03/06 12:52:41;;;;;;;10.73;7.90;;;14.70;48.70;;;;;;4892546;29;20035;-79
2022/03/06 12:55:15;;;;;;;10.30;7.03;;;16.40;45.10;;;;;;4920086;29;20028;-81
2022/03/06 12:57:49;;;;;;;9.45;7.30;;;17.80;45.40;;;;;;4928389;29;20040;-80
2022/03/06 13:00:19;;;;;;;9.27;7.15;;;18.10;43.50;;;;;;4910896;29;20028;-83
2022/03/06 13:02:49;;;;;;;9.88;7.65;;;19.30;41.70;;;;;;4927957;29;20097;-81